Time;durP1;ratioP1;P1;durP2;ratioP2;P2;SDS_P1;SDS_P2;PMS_P1;PMS_P2;Temp;Humidity;BMP_temperature;BMP_pressure;BME280_temperature;BME280_humidity;BME280_pressure;Samples;Min_cycle;Max_cycle;Signal;HPM_P1;HPM_P2
2021/07/31 00:01:30;;;;;;;12.60;5.32;;;;;;;15.97;80.68;100421.25;4952531;28;20034;-47
2021/07/31 00:03:56;;;;;;;16.48;5.57;;;;;;;15.99;80.97;100414.19;4955116;28;20106;-47
2021/07/31 00:06:21;;;;;;;13.18;5.85;;;;;;;16.02;80.93;100411.53;4949157;28;20514;-46
2021/07/31 00:08:47;;;;;;;15.70;5.75;;;;;;;16.04;80.42;100410.59;4957008;28;20027;-52
2021/07/31 00:11:13;;;;;;;14.68;5.68;;;;;;;16.14;80.22;100413.97;4957519;28;20395;-48
2021/07/31 00:13:38;;;;;;;11.15;5.60;;;;;;;16.07;79.96;100418.44;4952591;28;20276;-47
2021/07/31 00:16:04;;;;;;;18.38;5.90;;;;;;;16.00;80.78;100408.06;4953192;28;20035;-48
2021/07/31 00:18:29;;;;;;;12.65;5.35;;;;;;;16.00;80.82;100410.69;4952180;28;20436;-51
2021/07/31 00:20:57;;;;;;;14.00;5.50;;;;;;;16.49;78.89;100410.72;4967100;28;20080;-49
2021/07/31 00:23:22;;;;;;;12.65;5.68;;;;;;;16.53;78.27;100418.53;4951709;28;20030;-48
2021/07/31 00:25:54;;;;;;;14.02;5.38;;;;;;;16.62;78.76;100420.16;4949027;28;20089;-48
2021/07/31 00:28:19;;;;;;;14.15;6.20;;;;;;;16.60;79.54;100409.66;4974988;28;20388;-52
2021/07/31 00:30:45;;;;;;;17.90;5.63;;;;;;;16.57;80.00;100416.72;4951179;28;20513;-50
2021/07/31 00:33:10;;;;;;;18.48;5.82;;;;;;;16.52;80.07;100418.56;4959373;28;20066;-49
2021/07/31 00:35:35;;;;;;;18.08;6.13;;;;;;;16.45;80.06;100409.91;4954493;28;20034;-48
2021/07/31 00:38:01;;;;;;;18.23;6.40;;;;;;;16.35;80.51;100402.19;4953121;28;20083;-54
2021/07/31 00:40:26;;;;;;;13.13;5.53;;;;;;;16.12;80.97;100415.75;4958932;28;20505;-46
2021/07/31 00:42:51;;;;;;;12.85;5.30;;;;;;;16.20;80.67;100425.25;4969152;28;20038;-45
2021/07/31 00:45:17;;;;;;;14.05;5.63;;;;;;;15.93;82.21;100425.69;4953227;28;20068;-48
2021/07/31 00:47:43;;;;;;;11.77;5.53;;;;;;;15.82;82.71;100425.84;4957922;28;20042;-46
2021/07/31 00:50:09;;;;;;;14.57;5.47;;;;;;;15.73;82.57;100431.25;4955062;28;20109;-47
2021/07/31 00:52:36;;;;;;;13.82;5.30;;;;;;;15.85;82.66;100429.34;4957184;28;20038;-49
2021/07/31 00:55:02;;;;;;;18.13;5.50;;;;;;;15.96;81.45;100427.41;4957847;28;20118;-47
2021/07/31 00:57:27;;;;;;;14.48;5.38;;;;;;;15.96;82.19;100443.19;4948620;28;20045;-48
2021/07/31 00:59:53;;;;;;;12.93;5.68;;;;;;;15.97;81.80;100424.75;4952487;28;20370;-48
2021/07/31 01:02:18;;;;;;;12.02;5.32;;;;;;;15.99;81.46;100427.34;4955652;28;20061;-47
2021/07/31 01:04:44;;;;;;;18.05;5.70;;;;;;;15.99;81.52;100425.59;4950970;28;20047;-46
2021/07/31 01:07:09;;;;;;;14.73;5.15;;;;;;;15.99;81.43;100425.59;4956510;28;20712;-48
2021/07/31 01:09:34;;;;;;;12.65;5.18;;;;;;;15.83;81.94;100417.09;4954309;28;20066;-46
2021/07/31 01:12:01;;;;;;;12.25;6.03;;;;;;;15.92;81.52;100421.31;4957826;28;21200;-50
2021/07/31 01:14:27;;;;;;;16.13;6.05;;;;;;;15.93;81.67;100416.94;4945773;28;20040;-48
2021/07/31 01:16:52;;;;;;;11.32;5.82;;;;;;;15.97;81.44;100434.41;4952643;28;20023;-46
2021/07/31 01:19:17;;;;;;;15.32;6.45;;;;;;;16.29;80.01;100411.06;4960501;28;20475;-47
2021/07/31 01:21:44;;;;;;;13.15;5.85;;;;;;;16.48;79.62;100427.38;4952482;28;20421;-46
2021/07/31 01:24:11;;;;;;;17.05;5.97;;;;;;;16.52;79.51;100421.19;4951535;28;20553;-48
2021/07/31 01:26:47;;;;;;;11.27;5.03;;;;;;;16.54;79.26;100428.16;4949869;28;20069;-47
2021/07/31 01:29:14;;;;;;;13.40;4.93;;;;;;;16.51;79.61;100419.47;4955300;28;20070;-45
2021/07/31 01:31:41;;;;;;;13.95;4.63;;;;;;;16.57;79.85;100416.72;4952500;28;20030;-46
2021/07/31 01:34:07;;;;;;;11.40;4.30;;;;;;;16.70;79.33;100426.16;4955054;28;20541;-45
2021/07/31 01:36:32;;;;;;;12.60;4.20;;;;;;;16.68;79.25;100421.81;4966954;28;20054;-47
2021/07/31 01:38:58;;;;;;;12.68;4.35;;;;;;;16.63;79.82;100425.41;4954842;28;20070;-48
2021/07/31 01:41:24;;;;;;;14.95;4.85;;;;;;;16.66;79.75;100424.47;4954936;28;20035;-46
2021/07/31 01:43:50;;;;;;;15.65;4.70;;;;;;;16.69;79.55;100439.34;4955364;28;20100;-46
2021/07/31 01:46:16;;;;;;;14.10;4.88;;;;;;;16.71;79.65;100430.50;4954714;28;20023;-48
2021/07/31 01:48:41;;;;;;;18.30;5.95;;;;;;;16.72;79.65;100429.59;4951188;28;20036;-46
2021/07/31 01:51:07;;;;;;;22.05;6.45;;;;;;;16.74;79.29;100429.59;4955137;28;20018;-48
2021/07/31 01:53:32;;;;;;;16.95;6.07;;;;;;;16.76;79.32;100430.44;4951037;28;20058;-50
2021/07/31 01:55:57;;;;;;;23.95;6.40;;;;;;;16.73;79.48;100433.97;4952600;28;20030;-46
2021/07/31 01:58:23;;;;;;;17.38;6.88;;;;;;;16.77;79.97;100435.66;4953672;28;20054;-49
2021/07/31 02:00:48;;;;;;;20.50;6.88;;;;;;;16.42;80.14;100430.13;4953565;28;20597;-46
2021/07/31 02:03:13;;;;;;;14.98;6.90;;;;;;;16.28;81.61;100448.81;4955551;28;20027;-48
2021/07/31 02:05:39;;;;;;;18.95;6.53;;;;;;;16.20;81.98;100446.28;4953721;28;20037;-46
2021/07/31 02:08:04;;;;;;;18.77;6.65;;;;;;;16.14;82.07;100453.41;4956168;28;20034;-47
2021/07/31 02:10:30;;;;;;;16.90;6.80;;;;;;;16.13;82.49;100449.03;4950421;28;20045;-49
2021/07/31 02:12:56;;;;;;;26.77;6.70;;;;;;;16.10;82.70;100454.38;4952861;28;20039;-47
2021/07/31 02:15:21;;;;;;;25.30;6.95;;;;;;;16.06;82.72;100458.78;4953567;28;20045;-48
2021/07/31 02:17:46;;;;;;;21.95;6.97;;;;;;;16.04;82.38;100452.66;4955926;28;20070;-48
2021/07/31 02:20:12;;;;;;;18.63;6.75;;;;;;;15.97;82.79;100451.06;4954731;28;20105;-56
2021/07/31 02:22:37;;;;;;;21.90;6.53;;;;;;;15.98;82.52;100446.66;4955123;28;20101;-49
2021/07/31 02:25:03;;;;;;;24.33;7.43;;;;;;;15.77;83.28;100459.22;4958967;28;20696;-46
2021/07/31 02:27:29;;;;;;;22.98;7.47;;;;;;;15.77;83.33;100455.72;4955351;28;20042;-48
2021/07/31 02:29:54;;;;;;;21.42;7.93;;;;;;;15.95;82.69;100460.72;4954942;28;20105;-46
2021/07/31 02:32:19;;;;;;;22.90;8.50;;;;;;;15.99;82.61;100464.16;4953735;28;20082;-46
2021/07/31 02:34:45;;;;;;;19.08;8.10;;;;;;;16.08;82.40;100459.63;4957896;28;20402;-48
2021/07/31 02:37:10;;;;;;;19.90;8.27;;;;;;;16.00;81.84;100461.50;4954419;28;20225;-47
2021/07/31 02:39:36;;;;;;;22.20;8.60;;;;;;;15.99;81.86;100462.41;4954016;28;20042;-47
2021/07/31 02:42:01;;;;;;;21.27;8.18;;;;;;;16.05;81.15;100470.19;4959088;28;20046;-48
2021/07/31 02:44:27;;;;;;;24.08;8.50;;;;;;;16.05;81.15;100464.06;4952633;28;20053;-47
2021/07/31 02:46:53;;;;;;;18.88;7.60;;;;;;;16.08;81.13;100467.53;4957358;28;20045;-52
2021/07/31 02:49:18;;;;;;;22.13;8.20;;;;;;;16.11;80.85;100463.97;4959013;28;20062;-49
2021/07/31 02:51:44;;;;;;;20.75;7.82;;;;;;;16.10;80.92;100475.41;4960422;28;20340;-46
2021/07/31 02:54:09;;;;;;;21.13;7.75;;;;;;;16.12;80.41;100476.22;4956534;28;20126;-47
2021/07/31 02:56:34;;;;;;;14.63;6.43;;;;;;;16.13;79.53;100470.06;4958328;28;20037;-46
2021/07/31 02:59:00;;;;;;;16.55;6.65;;;;;;;16.15;79.10;100473.56;4954179;28;20046;-47
2021/07/31 03:01:25;;;;;;;14.25;6.93;;;;;;;16.15;78.86;100473.56;4954329;28;20644;-48
2021/07/31 03:03:51;;;;;;;14.15;6.40;;;;;;;16.13;79.03;100468.31;4956791;28;20501;-49
2021/07/31 03:06:16;;;;;;;14.45;6.20;;;;;;;16.06;79.51;100476.31;4961842;28;20049;-46
2021/07/31 03:08:41;;;;;;;16.15;6.20;;;;;;;16.05;79.02;100467.56;4955591;28;20062;-46
2021/07/31 03:11:08;;;;;;;16.55;6.55;;;;;;;16.05;78.93;100470.19;4954859;28;20371;-51
2021/07/31 03:13:34;;;;;;;13.43;6.32;;;;;;;16.02;79.23;100469.38;4950348;28;20103;-46
2021/07/31 03:16:01;;;;;;;16.33;7.10;;;;;;;16.01;79.85;100468.50;4957185;28;20068;-46
2021/07/31 03:18:26;;;;;;;16.52;6.63;;;;;;;15.97;79.78;100476.47;4956944;28;20746;-47
2021/07/31 03:20:53;;;;;;;16.77;6.53;;;;;;;15.98;79.55;100476.44;4959143;28;20065;-46
2021/07/31 03:23:20;;;;;;;15.60;6.50;;;;;;;15.96;79.21;100469.47;4961258;28;20435;-49
2021/07/31 03:25:46;;;;;;;14.10;6.10;;;;;;;15.99;79.65;100472.03;4952776;28;20133;-47
2021/07/31 03:28:12;;;;;;;18.52;6.45;;;;;;;15.96;78.83;100470.34;4968026;28;20502;-46
2021/07/31 03:30:48;;;;;;;15.30;6.32;;;;;;;16.11;77.90;100482.38;4958599;28;20023;-48
2021/07/31 03:33:13;;;;;;;14.85;5.90;;;;;;;16.08;78.28;100488.56;4958099;28;20031;-49
2021/07/31 03:35:40;;;;;;;13.68;5.47;;;;;;;16.04;77.41;100497.38;4948743;28;20033;-52
2021/07/31 03:38:06;;;;;;;11.25;5.55;;;;;;;16.07;77.74;100492.09;4957819;28;20061;-46
2021/07/31 03:40:32;;;;;;;17.48;5.53;;;;;;;16.02;77.95;100487.78;4953278;28;20110;-47
2021/07/31 03:42:57;;;;;;;12.30;5.30;;;;;;;16.08;77.64;100487.69;4961313;28;20121;-50
2021/07/31 03:45:23;;;;;;;10.60;4.60;;;;;;;16.12;76.98;100490.25;4969576;28;20035;-50
2021/07/31 03:47:48;;;;;;;10.15;4.75;;;;;;;16.14;77.57;100500.75;4957389;28;20031;-47
2021/07/31 03:50:14;;;;;;;12.45;4.85;;;;;;;16.14;76.59;100503.38;4955924;28;20027;-48
2021/07/31 03:52:39;;;;;;;14.70;5.43;;;;;;;16.13;78.02;100493.75;4957795;28;20026;-47
2021/07/31 03:55:06;;;;;;;10.32;5.32;;;;;;;16.09;78.71;100500.84;4955054;28;20445;-47
2021/07/31 03:57:32;;;;;;;11.52;5.10;;;;;;;15.97;78.85;100498.38;4957692;28;20537;-47
2021/07/31 03:59:57;;;;;;;12.45;5.68;;;;;;;15.87;79.21;100512.53;4954300;28;20336;-48
2021/07/31 04:02:22;;;;;;;10.70;5.45;;;;;;;15.85;79.32;100509.06;4958008;28;20029;-48
2021/07/31 04:04:48;;;;;;;13.07;4.85;;;;;;;15.87;78.30;100512.53;4954762;28;20030;-46
2021/07/31 04:07:13;;;;;;;11.13;5.10;;;;;;;15.83;79.22;100516.09;4954125;28;20035;-47
2021/07/31 04:09:38;;;;;;;15.25;4.85;;;;;;;15.83;78.85;100521.34;4971450;28;20138;-47
2021/07/31 04:12:04;;;;;;;13.18;5.05;;;;;;;15.81;78.68;100516.09;4955175;28;20114;-47
2021/07/31 04:14:30;;;;;;;10.77;4.95;;;;;;;15.78;79.48;100508.28;4954855;28;20161;-51
2021/07/31 04:16:55;;;;;;;11.18;4.80;;;;;;;15.78;79.59;100516.16;4958421;28;20022;-46
2021/07/31 04:19:21;;;;;;;8.90;4.43;;;;;;;15.81;79.06;100521.38;4961162;28;20026;-46
2021/07/31 04:21:46;;;;;;;11.20;4.40;;;;;;;15.86;78.67;100520.47;4952072;28;20035;-49
2021/07/31 04:24:12;;;;;;;11.30;4.65;;;;;;;15.90;79.01;100532.66;4957865;28;20092;-48
2021/07/31 04:26:37;;;;;;;13.60;4.85;;;;;;;15.91;79.16;100532.66;4955005;28;20230;-50
2021/07/31 04:29:03;;;;;;;10.88;4.97;;;;;;;15.93;79.07;100525.59;4955456;28;20042;-46
2021/07/31 04:31:28;;;;;;;12.25;5.03;;;;;;;15.91;79.24;100530.03;4951586;28;20034;-48
2021/07/31 04:33:54;;;;;;;12.15;5.30;;;;;;;15.95;79.07;100531.69;4957119;28;20544;-45
2021/07/31 04:36:19;;;;;;;10.95;5.30;;;;;;;16.01;79.16;100534.25;4954312;28;20076;-47
2021/07/31 04:38:44;;;;;;;11.63;5.07;;;;;;;16.08;78.86;100548.19;4957793;28;20046;-48
2021/07/31 04:41:10;;;;;;;13.45;4.82;;;;;;;16.10;78.86;100538.50;4952935;28;20128;-47
2021/07/31 04:43:35;;;;;;;12.38;5.22;;;;;;;16.09;79.22;100548.16;4955674;28;20513;-47
2021/07/31 04:46:01;;;;;;;11.07;4.90;;;;;;;16.15;79.40;100552.47;4955699;28;20054;-48
2021/07/31 04:48:26;;;;;;;14.95;5.18;;;;;;;16.14;78.79;100556.84;4954872;28;20481;-47
2021/07/31 04:50:56;;;;;;;11.13;5.50;;;;;;;16.14;79.28;100561.25;4955200;28;20138;-48
2021/07/31 04:53:21;;;;;;;13.82;5.00;;;;;;;16.15;78.71;100558.59;4956760;28;20550;-47
2021/07/31 04:55:47;;;;;;;12.27;5.60;;;;;;;16.14;79.08;100558.59;4952797;28;20462;-46
2021/07/31 04:58:12;;;;;;;10.90;5.25;;;;;;;16.09;78.70;100561.31;4955473;28;20042;-50
2021/07/31 05:00:37;;;;;;;12.45;5.40;;;;;;;16.10;78.81;100562.19;4955552;28;20031;-46
2021/07/31 05:03:06;;;;;;;11.90;5.15;;;;;;;16.15;78.86;100562.97;4955755;28;20035;-51
2021/07/31 05:05:33;;;;;;;14.57;5.03;;;;;;;16.17;78.02;100569.94;4952139;28;20035;-47
2021/07/31 05:07:59;;;;;;;11.88;5.18;;;;;;;16.14;78.14;100566.50;4956401;28;20041;-49
2021/07/31 05:10:24;;;;;;;8.38;4.57;;;;;;;16.13;77.78;100568.25;4959191;28;20030;-46
2021/07/31 05:12:49;;;;;;;10.13;5.28;;;;;;;16.18;78.31;100573.44;4950011;28;20038;-47
2021/07/31 05:15:16;;;;;;;9.43;4.95;;;;;;;16.20;78.38;100579.56;4955664;28;20019;-47
2021/07/31 05:17:41;;;;;;;11.90;4.60;;;;;;;16.05;78.69;100571.88;4956377;28;20150;-49
2021/07/31 05:20:07;;;;;;;8.85;4.60;;;;;;;15.98;77.93;100571.09;4957889;28;20094;-48
2021/07/31 05:22:32;;;;;;;9.68;5.07;;;;;;;15.97;78.28;100568.50;4954890;28;20399;-49
2021/07/31 05:24:57;;;;;;;10.73;4.80;;;;;;;15.99;78.43;100572.81;4957277;28;20039;-49
2021/07/31 05:27:23;;;;;;;10.25;4.93;;;;;;;15.98;79.19;100575.50;4951158;28;20027;-46
2021/07/31 05:29:48;;;;;;;7.95;4.55;;;;;;;15.99;78.99;100578.09;4958159;28;20035;-45
2021/07/31 05:32:13;;;;;;;8.77;4.38;;;;;;;16.03;77.99;100584.19;4953196;28;20035;-46
2021/07/31 05:34:39;;;;;;;11.15;4.95;;;;;;;16.05;78.99;100596.41;4948496;28;20457;-50
2021/07/31 05:37:04;;;;;;;11.70;4.80;;;;;;;16.04;78.22;100591.19;4957306;28;20118;-48
2021/07/31 05:39:33;;;;;;;11.25;4.40;;;;;;;16.16;77.55;100593.66;4950948;28;20216;-46
2021/07/31 05:42:02;;;;;;;8.82;4.32;;;;;;;16.23;77.35;100597.91;4953094;28;21068;-50
2021/07/31 05:44:28;;;;;;;10.50;4.07;;;;;;;16.21;77.47;100586.56;4955510;28;20035;-49
2021/07/31 05:46:53;;;;;;;8.07;4.40;;;;;;;16.18;78.42;100587.47;4952850;28;20498;-48
2021/07/31 05:49:18;;;;;;;7.85;4.15;;;;;;;16.21;77.89;100587.44;4967688;28;20113;-45
2021/07/31 05:51:44;;;;;;;10.48;3.95;;;;;;;16.27;77.40;100590.88;4955172;28;20039;-47
2021/07/31 05:54:09;;;;;;;8.10;4.38;;;;;;;16.33;78.20;100599.53;4953791;28;20027;-50
2021/07/31 05:56:34;;;;;;;9.35;4.15;;;;;;;16.39;77.03;100614.38;4956430;28;20042;-46
2021/07/31 05:59:00;;;;;;;10.93;4.28;;;;;;;16.28;78.88;100604.00;4956134;28;20023;-49
2021/07/31 06:01:25;;;;;;;13.13;4.07;;;;;;;16.35;77.69;100604.75;4952730;28;20055;-49
2021/07/31 06:03:50;;;;;;;8.73;3.78;;;;;;;16.44;77.82;100607.28;4950696;28;20026;-49
2021/07/31 06:06:16;;;;;;;9.60;3.97;;;;;;;16.59;77.58;100610.56;4954150;28;20053;-48
2021/07/31 06:08:41;;;;;;;9.15;3.30;;;;;;;16.78;76.15;100610.28;4956195;28;20105;-48
2021/07/31 06:11:07;;;;;;;11.80;3.65;;;;;;;16.87;76.29;100615.41;4952537;28;20027;-49
2021/07/31 06:13:33;;;;;;;9.57;3.78;;;;;;;16.94;75.63;100620.56;4951310;28;20037;-47
2021/07/31 06:15:58;;;;;;;7.40;3.55;;;;;;;16.88;76.11;100627.69;4954499;28;20039;-47
2021/07/31 06:18:24;;;;;;;9.65;3.35;;;;;;;16.89;75.47;100621.53;4953366;28;20035;-47
2021/07/31 06:20:49;;;;;;;9.20;3.65;;;;;;;16.85;76.07;100630.34;4952546;28;20050;-46
2021/07/31 06:23:16;;;;;;;8.48;3.60;;;;;;;16.73;77.48;100623.50;4953207;28;20019;-47
2021/07/31 06:25:41;;;;;;;10.25;3.50;;;;;;;16.67;77.30;100628.00;4948980;28;20562;-46
2021/07/31 06:28:07;;;;;;;7.43;3.30;;;;;;;16.66;76.96;100634.16;4956025;28;20026;-46
2021/07/31 06:30:32;;;;;;;10.27;3.40;;;;;;;16.59;77.51;100631.63;4950909;28;20418;-46
2021/07/31 06:32:57;;;;;;;13.05;3.80;;;;;;;16.53;78.55;100634.31;4957992;28;20395;-45
2021/07/31 06:35:23;;;;;;;7.28;3.38;;;;;;;16.59;78.13;100628.97;4945560;28;20456;-48
2021/07/31 06:37:48;;;;;;;11.50;3.92;;;;;;;16.82;77.99;100639.19;4957913;28;20489;-45
2021/07/31 06:40:14;;;;;;;9.27;3.33;;;;;;;17.14;77.35;100636.00;4953640;28;20073;-47
2021/07/31 06:42:39;;;;;;;10.80;3.28;;;;;;;17.97;74.15;100627.44;4954044;28;20034;-48
2021/07/31 06:45:05;;;;;;;6.85;2.88;;;;;;;18.73;70.69;100638.94;4954942;28;20129;-46
2021/07/31 06:47:31;;;;;;;9.13;2.63;;;;;;;19.10;69.09;100631.84;4955638;28;20063;-49
2021/07/31 06:49:56;;;;;;;6.35;2.90;;;;;;;18.92;69.20;100641.13;4969851;28;20035;-48
2021/07/31 06:52:21;;;;;;;9.20;2.55;;;;;;;18.52;71.26;100646.44;4954461;28;20042;-47
2021/07/31 06:54:47;;;;;;;4.95;2.55;;;;;;;17.88;74.40;100646.06;4954857;28;20062;-51
2021/07/31 06:57:12;;;;;;;6.10;2.90;;;;;;;17.53;75.91;100646.72;4959256;28;20062;-47
2021/07/31 06:59:38;;;;;;;8.57;3.10;;;;;;;17.34;77.20;100651.47;4950369;28;20137;-46
2021/07/31 07:02:04;;;;;;;8.20;3.42;;;;;;;16.97;78.43;100649.44;4953567;28;20410;-47
2021/07/31 07:04:30;;;;;;;11.63;3.97;;;;;;;16.88;79.61;100656.66;4951868;28;20035;-47
2021/07/31 07:06:55;;;;;;;12.32;3.95;;;;;;;16.90;79.90;100660.97;4954191;28;20030;-46
2021/07/31 07:09:21;;;;;;;9.48;3.65;;;;;;;16.97;79.60;100667.00;4949008;28;20034;-47
2021/07/31 07:11:46;;;;;;;10.90;4.18;;;;;;;17.19;79.72;100655.25;4960739;28;20053;-46
2021/07/31 07:14:12;;;;;;;10.57;3.70;;;;;;;17.48;78.71;100651.22;4958838;28;20635;-49
2021/07/31 07:16:37;;;;;;;8.60;3.60;;;;;;;17.74;78.15;100660.41;4953926;28;20037;-47
2021/07/31 07:19:03;;;;;;;9.07;3.60;;;;;;;17.87;77.15;100661.03;4956022;28;20094;-48
2021/07/31 07:21:28;;;;;;;6.22;3.40;;;;;;;18.00;77.49;100659.00;4957754;28;20034;-46
2021/07/31 07:23:54;;;;;;;9.68;3.22;;;;;;;18.00;76.80;100664.28;4959466;28;20362;-48
2021/07/31 07:26:19;;;;;;;10.88;3.75;;;;;;;17.96;75.20;100667.91;4958732;28;20050;-46
2021/07/31 07:28:45;;;;;;;13.13;3.63;;;;;;;17.92;76.84;100671.50;4954664;28;20035;-46
2021/07/31 07:31:11;;;;;;;7.65;3.13;;;;;;;17.76;76.35;100676.19;4945968;28;20037;-50
2021/07/31 07:33:37;;;;;;;12.48;3.72;;;;;;;17.44;78.25;100684.69;4951726;28;20054;-47
2021/07/31 07:36:09;;;;;;;9.88;4.13;;;;;;;17.31;79.50;100686.66;4960019;28;20114;-48
2021/07/31 07:38:34;;;;;;;8.32;4.20;;;;;;;17.26;79.62;100693.75;4960585;28;20027;-46
2021/07/31 07:41:00;;;;;;;11.20;3.88;;;;;;;17.09;80.55;100700.19;4959652;28;20039;-47
2021/07/31 07:43:25;;;;;;;6.70;3.88;;;;;;;16.57;82.54;100699.19;4949434;28;20179;-47
2021/07/31 07:45:50;;;;;;;10.52;3.58;;;;;;;16.55;83.00;100695.69;4954530;28;20371;-48
2021/07/31 07:48:16;;;;;;;10.73;3.50;;;;;;;16.65;82.59;100699.09;4961303;28;20090;-47
2021/07/31 07:50:41;;;;;;;12.63;3.67;;;;;;;16.90;81.57;100705.75;4953009;28;20019;-48
2021/07/31 07:53:07;;;;;;;9.48;3.67;;;;;;;17.12;80.47;100703.66;4956577;28;20026;-46
2021/07/31 07:55:32;;;;;;;8.90;4.28;;;;;;;17.13;80.01;100712.44;4951447;28;20041;-46
2021/07/31 07:57:57;;;;;;;15.30;4.53;;;;;;;17.10;80.88;100717.72;4955438;28;20026;-48
2021/07/31 08:00:23;;;;;;;10.05;4.40;;;;;;;17.12;80.81;100721.22;4971825;28;20035;-46
2021/07/31 08:02:48;;;;;;;10.52;4.80;;;;;;;17.28;80.95;100718.31;4953326;28;20138;-47
2021/07/31 08:05:15;;;;;;;11.18;4.70;;;;;;;17.62;80.60;100723.94;4956558;28;20391;-48
2021/07/31 08:07:43;;;;;;;13.57;4.70;;;;;;;17.75;79.52;100719.25;4950546;28;20027;-46
2021/07/31 08:10:09;;;;;;;9.45;3.92;;;;;;;18.17;78.81;100721.13;4960033;28;20732;-48
2021/07/31 08:12:35;;;;;;;12.88;5.03;;;;;;;18.51;78.82;100723.91;4954696;28;20491;-46
2021/07/31 08:15:00;;;;;;;9.18;4.35;;;;;;;18.88;76.97;100720.47;4955864;28;20350;-46
2021/07/31 08:17:25;;;;;;;8.77;4.10;;;;;;;19.78;76.29;100719.13;4948956;28;20577;-46
2021/07/31 08:19:51;;;;;;;9.30;3.50;;;;;;;20.79;70.34;100714.47;4956561;28;20634;-47
2021/07/31 08:22:16;;;;;;;10.07;3.80;;;;;;;20.80;71.81;100722.34;4956150;28;20037;-50
2021/07/31 08:24:41;;;;;;;8.10;3.60;;;;;;;20.71;69.53;100717.34;4956639;28;20293;-50
2021/07/31 08:27:07;;;;;;;8.80;3.50;;;;;;;20.43;68.54;100717.28;4957833;28;20057;-48
2021/07/31 08:29:32;;;;;;;9.75;4.18;;;;;;;19.90;71.32;100725.84;4954498;28;20065;-47
2021/07/31 08:31:57;;;;;;;10.73;3.80;;;;;;;19.67;71.67;100734.41;4956727;28;20033;-46
2021/07/31 08:34:24;;;;;;;8.43;4.00;;;;;;;19.28;71.95;100725.66;4954325;28;20654;-47
2021/07/31 08:36:49;;;;;;;8.85;4.60;;;;;;;19.06;73.07;100730.63;4955854;28;20023;-46
2021/07/31 08:39:16;;;;;;;9.70;4.70;;;;;;;18.90;73.62;100734.53;4955709;28;20034;-47
2021/07/31 08:41:41;;;;;;;10.18;4.85;;;;;;;18.79;74.74;100741.81;4950152;28;20081;-46
2021/07/31 08:44:06;;;;;;;16.65;4.93;;;;;;;18.66;74.83;100743.88;4957565;28;20047;-46
2021/07/31 08:46:34;;;;;;;11.95;5.78;;;;;;;18.48;76.38;100768.84;4954513;28;20141;-46
2021/07/31 08:48:59;;;;;;;11.68;5.65;;;;;;;18.31;76.75;100765.66;4956176;28;20058;-46
2021/07/31 08:51:26;;;;;;;9.35;4.50;;;;;;;18.28;76.25;100756.97;4956563;28;20512;-47
2021/07/31 08:53:52;;;;;;;12.25;5.10;;;;;;;17.75;78.06;100764.09;4952875;28;20486;-49
2021/07/31 08:56:17;;;;;;;11.30;4.97;;;;;;;17.64;78.94;100776.59;4958706;28;20033;-45
2021/07/31 08:58:43;;;;;;;8.88;5.18;;;;;;;17.62;78.87;100774.00;4954311;28;20042;-48
2021/07/31 09:01:08;;;;;;;13.20;5.72;;;;;;;17.68;79.86;100771.28;4954879;28;20035;-48
2021/07/31 09:03:47;;;;;;;11.95;5.43;;;;;;;18.03;79.55;100780.31;4953538;28;20597;-47
2021/07/31 09:06:29;;;;;;;14.02;5.53;;;;;;;18.14;78.05;100787.13;4955863;28;20478;-48
2021/07/31 09:08:56;;;;;;;12.70;5.47;;;;;;;18.13;77.93;100790.66;4955211;28;20034;-49
2021/07/31 09:11:21;;;;;;;10.07;4.93;;;;;;;17.93;78.24;100800.69;4957825;28;20145;-48
2021/07/31 09:13:47;;;;;;;12.90;4.15;;;;;;;18.10;77.93;100800.41;4955437;28;20479;-47
2021/07/31 09:16:12;;;;;;;22.33;4.82;;;;;;;18.12;78.95;100809.13;4955634;28;20034;-48
2021/07/31 09:18:43;;;;;;;11.77;4.45;;;;;;;18.19;77.47;100800.22;4954230;28;20034;-46
2021/07/31 09:21:13;;;;;;;11.77;4.43;;;;;;;18.04;77.91;100806.66;4955901;28;20117;-49
2021/07/31 09:24:14;;;;;;;9.18;4.05;;;;;;;17.94;77.79;100812.97;4972294;28;20118;-47
2021/07/31 09:26:46;;;;;;;5.20;2.65;;;;;;;17.83;78.21;100814.94;4954268;28;20097;-47
2021/07/31 09:29:13;;;;;;;5.35;2.30;;;;;;;17.57;78.49;100825.88;4955777;28;20035;-46
2021/07/31 09:31:49;;;;;;;3.22;1.63;;;;;;;17.35;78.05;100822.72;4968644;28;20031;-47
2021/07/31 09:34:34;;;;;;;6.13;1.90;;;;;;;16.94;81.29;100820.69;4954406;28;20058;-47
2021/07/31 09:37:28;;;;;;;3.97;2.30;;;;;;;16.97;82.15;100818.00;4957266;28;20039;-50
2021/07/31 09:40:02;;;;;;;5.65;2.80;;;;;;;17.39;82.76;100818.25;4952313;28;20081;-48
2021/07/31 09:42:33;;;;;;;7.15;2.90;;;;;;;17.73;81.03;100821.28;4954865;28;20494;-47
2021/07/31 09:45:01;;;;;;;8.07;3.10;;;;;;;18.11;79.29;100823.25;4951903;28;20225;-50
2021/07/31 09:47:26;;;;;;;8.85;3.40;;;;;;;18.59;79.41;100821.47;4954624;28;20180;-47
2021/07/31 09:49:53;;;;;;;10.35;3.28;;;;;;;18.68;78.09;100817.75;4954028;28;20035;-45
2021/07/31 09:52:22;;;;;;;10.68;3.65;;;;;;;18.79;77.39;100829.84;4950452;28;20022;-46
2021/07/31 09:54:48;;;;;;;8.73;3.90;;;;;;;18.54;77.34;100840.00;4955534;28;20038;-46
2021/07/31 09:57:14;;;;;;;12.55;4.90;;;;;;;18.23;77.79;100844.16;4947859;28;20948;-47
2021/07/31 09:59:47;;;;;;;11.00;4.80;;;;;;;17.83;80.01;100841.31;4949011;28;20256;-48
2021/07/31 10:02:15;;;;;;;6.90;3.58;;;;;;;17.86;79.36;100850.97;4954278;28;20110;-46
2021/07/31 10:04:41;;;;;;;8.48;3.40;;;;;;;17.86;80.29;100837.78;4953073;28;20038;-47
2021/07/31 10:07:07;;;;;;;10.57;3.72;;;;;;;18.03;79.31;100848.91;4953548;28;20039;-47
2021/07/31 10:09:33;;;;;;;8.13;3.83;;;;;;;18.16;79.53;100855.69;4951524;28;20038;-49
2021/07/31 10:11:59;;;;;;;8.88;3.90;;;;;;;18.63;79.10;100845.13;4954160;28;20356;-50
2021/07/31 10:14:24;;;;;;;10.48;4.70;;;;;;;18.97;77.10;100844.41;4963999;28;20034;-51
2021/07/31 10:16:51;;;;;;;11.95;4.78;;;;;;;19.25;75.58;100850.84;4952475;28;20531;-46
2021/07/31 10:19:17;;;;;;;12.57;5.28;;;;;;;19.20;74.99;100847.47;4953252;28;20743;-50
2021/07/31 10:21:58;;;;;;;9.82;4.85;;;;;;;19.62;74.48;100848.25;4963518;28;20122;-52
2021/07/31 10:24:24;;;;;;;8.63;4.10;;;;;;;19.99;72.64;100856.16;4958053;28;20042;-50
2021/07/31 10:27:14;;;;;;;12.10;4.18;;;;;;;20.37;71.33;100852.50;4953077;28;20313;-48
2021/07/31 10:29:41;;;;;;;10.25;4.53;;;;;;;20.10;72.44;100851.44;4954123;28;20039;-49
2021/07/31 10:32:37;;;;;;;8.02;4.47;;;;;;;20.85;70.90;100855.59;4953627;28;20078;-48
2021/07/31 10:35:05;;;;;;;8.77;4.57;;;;;;;21.06;70.29;100862.88;4949683;28;20141;-49
2021/07/31 10:37:38;;;;;;;9.77;3.92;;;;;;;20.76;68.10;100862.91;4949593;28;20035;-49
2021/07/31 10:40:25;;;;;;;22.35;10.75;;;;;;;20.75;71.72;100867.34;4956273;28;20158;-51
2021/07/31 10:42:51;;;;;;;8.43;4.25;;;;;;;21.08;69.42;100868.16;4946655;28;20217;-47
2021/07/31 10:45:23;;;;;;;8.05;3.67;;;;;;;21.23;67.10;100867.72;4958873;28;20494;-47
2021/07/31 10:47:59;;;;;;;6.43;3.47;;;;;;;21.32;66.84;100879.84;4962331;28;20042;-47
2021/07/31 10:50:27;;;;;;;7.72;3.60;;;;;;;21.25;66.56;100868.53;4955157;28;20294;-48
2021/07/31 10:52:56;;;;;;;9.57;3.90;;;;;;;21.01;67.16;100874.53;4958340;28;20392;-48
2021/07/31 10:55:23;;;;;;;11.13;3.88;;;;;;;20.93;66.42;100877.41;4955263;28;20018;-49
2021/07/31 10:57:54;;;;;;;7.50;3.75;;;;;;;20.71;66.99;100881.59;4957914;28;20402;-52
2021/07/31 11:00:34;;;;;;;8.82;3.88;;;;;;;20.82;67.38;100882.16;4958169;28;20285;-49
2021/07/31 11:03:03;;;;;;;11.57;4.68;;;;;;;21.18;66.33;100879.38;4957047;28;20646;-48
2021/07/31 11:05:51;;;;;;;10.85;4.30;;;;;;;21.58;65.49;100877.25;4956704;28;20149;-49
2021/07/31 11:08:20;;;;;;;9.50;3.40;;;;;;;21.73;64.34;100886.47;4956021;28;20640;-50
2021/07/31 11:10:47;;;;;;;9.63;4.00;;;;;;;21.72;64.21;100892.69;4959820;28;20037;-52
2021/07/31 11:13:18;;;;;;;8.00;3.42;;;;;;;21.70;62.75;100891.91;4956401;28;20026;-49
2021/07/31 11:15:55;;;;;;;25.77;10.25;;;;;;;22.09;62.93;100895.91;4954565;28;20479;-47
2021/07/31 11:18:47;;;;;;;9.48;4.30;;;;;;;21.86;63.61;100899.31;4955556;28;20530;-51